Terminal Aerodrome Forecast
Issued by NWS Sioux Falls, SD

Home | Current Version | Previous Version | Text Only | Print | Product List | Glossary On
Versions: 1 2 3 4 5 6 7 8 9 10 11 12
000
FTUS43 KFSD 231720
TAFHON
TAF
KHON 231720Z 2318/2418 14015G24KT 4SM -RA BR BKN010
     FM232000 14015G24KT P6SM OVC015
     FM240200 15008KT P6SM BKN007
     FM241000 15005KT 4SM BR BKN004
     FM241500 17006KT P6SM SKC=

USA.gov is the U.S. government's official web portal to all federal, state and local government web resources and services.